Terminal Aerodrome Forecast
Issued by NWS

Home | Current Version | Previous Version | Text Only | Print | Product List | Glossary Off
Versions: 1 2 3 4 5 6 7 8 9 10 11 12 13 14

000
FTUS43 KGRB 261100
TAFMTW
TAF
KMTW 261129Z 2612/2712 29009G14KT P6SM OVC035
     FM261500 32012G20KT P6SM BKN035
     FM270200 34012G18KT P6SM SCT040=

USA.gov is the U.S. government's official web portal to all federal, state and local government web resources and services.